createdAt,value
2022-12-20T00:00:32.136Z,11.69
2022-12-20T00:01:32.195Z,11.67
2022-12-20T00:02:32.161Z,11.64
2022-12-20T00:03:32.057Z,11.61
2022-12-20T00:04:32.064Z,11.61
2022-12-20T00:05:32.067Z,11.58
2022-12-20T00:06:31.992Z,11.62
2022-12-20T00:07:31.974Z,11.70
2022-12-20T00:08:31.971Z,11.69
2022-12-20T00:09:31.973Z,11.65
2022-12-20T00:10:31.968Z,11.62
2022-12-20T00:11:31.937Z,11.61
2022-12-20T00:12:31.930Z,11.62
2022-12-20T00:13:31.897Z,11.62
2022-12-20T00:14:31.900Z,11.64
2022-12-20T00:15:31.885Z,11.69
2022-12-20T00:16:31.873Z,11.69
2022-12-20T00:17:31.902Z,11.65
2022-12-20T00:18:31.831Z,11.67
2022-12-20T00:19:31.806Z,11.67
2022-12-20T00:20:31.806Z,11.70
2022-12-20T00:21:31.791Z,11.72
2022-12-20T00:22:31.821Z,11.72
2022-12-20T00:23:31.754Z,11.73
2022-12-20T00:24:31.781Z,11.75
2022-12-20T00:25:31.724Z,11.73
2022-12-20T00:26:31.738Z,11.69
2022-12-20T00:27:31.712Z,11.62
2022-12-20T00:28:31.705Z,11.65
2022-12-20T00:29:31.659Z,11.64
2022-12-20T00:30:31.639Z,11.62
2022-12-20T00:31:31.717Z,11.60
2022-12-20T00:32:31.621Z,11.62
2022-12-20T00:33:31.618Z,11.64
2022-12-20T00:34:31.612Z,11.67
2022-12-20T00:35:31.582Z,11.72
2022-12-20T00:36:31.564Z,11.73
2022-12-20T00:37:31.551Z,11.78
2022-12-20T00:38:31.546Z,11.80
2022-12-20T00:39:31.521Z,11.86
2022-12-20T00:40:31.527Z,11.79
2022-12-20T00:41:31.477Z,11.72
2022-12-20T00:42:31.492Z,11.69
2022-12-20T00:43:31.462Z,11.70
2022-12-20T00:44:31.454Z,11.62
2022-12-20T00:45:31.420Z,11.62
2022-12-20T00:46:31.447Z,11.67
2022-12-20T00:47:31.427Z,11.61
2022-12-20T00:48:31.414Z,11.64
2022-12-20T00:49:31.383Z,11.65
2022-12-20T00:50:31.407Z,11.67
2022-12-20T00:51:31.421Z,11.67
2022-12-20T00:52:31.369Z,11.69
2022-12-20T00:53:31.311Z,11.64
2022-12-20T00:54:31.303Z,11.58
2022-12-20T00:55:31.311Z,11.60
2022-12-20T00:56:31.304Z,11.62
2022-12-20T00:57:31.240Z,11.58
2022-12-20T00:58:31.275Z,11.58
2022-12-20T00:59:31.258Z,11.51
2022-12-20T01:00:31.225Z,11.52
2022-12-20T01:01:31.547Z,11.55
2022-12-20T01:02:31.379Z,11.52
2022-12-20T01:03:31.259Z,11.47
2022-12-20T01:04:31.157Z,11.54
2022-12-20T01:05:31.183Z,11.58
2022-12-20T01:06:31.147Z,11.55
2022-12-20T01:07:31.123Z,11.61
2022-12-20T01:08:31.137Z,11.52
2022-12-20T01:09:31.092Z,11.46
2022-12-20T01:10:31.090Z,11.43
2022-12-20T01:11:31.063Z,11.36
2022-12-20T01:12:31.056Z,11.32
2022-12-20T01:13:31.040Z,11.24
2022-12-20T01:14:33.751Z,11.24
2022-12-20T01:15:31.004Z,11.25
2022-12-20T01:16:31.053Z,11.25
2022-12-20T01:17:30.977Z,11.29
2022-12-20T01:18:30.957Z,11.32
2022-12-20T01:19:31.038Z,11.33
2022-12-20T01:20:30.938Z,11.36
2022-12-20T01:21:30.935Z,11.37
2022-12-20T01:22:30.908Z,11.33
2022-12-20T01:23:30.879Z,11.36
2022-12-20T01:24:30.865Z,11.42
2022-12-20T01:25:30.884Z,11.46
2022-12-20T01:26:30.930Z,11.55
2022-12-20T01:27:30.853Z,11.60
2022-12-20T01:28:30.806Z,11.65
2022-12-20T01:29:30.794Z,11.65
2022-12-20T01:30:30.824Z,11.67
2022-12-20T01:31:30.887Z,11.70
2022-12-20T01:32:30.762Z,11.72
2022-12-20T01:33:30.747Z,11.72
2022-12-20T01:34:30.717Z,11.78
2022-12-20T01:35:30.721Z,11.78
2022-12-20T01:36:30.715Z,11.75
2022-12-20T01:37:30.672Z,11.75
2022-12-20T01:38:30.694Z,11.78
2022-12-20T01:39:30.625Z,11.75
2022-12-20T01:40:30.666Z,11.75
2022-12-20T01:41:30.672Z,11.72
2022-12-20T01:42:30.627Z,11.73
2022-12-20T01:43:30.596Z,11.73
2022-12-20T01:44:30.567Z,11.73
2022-12-20T01:45:30.636Z,11.73
2022-12-20T01:46:30.699Z,11.72
2022-12-20T01:47:30.559Z,11.72
2022-12-20T01:48:30.551Z,11.72
2022-12-20T01:49:30.500Z,11.72
2022-12-20T01:50:30.483Z,11.79
2022-12-20T01:51:30.535Z,11.82
2022-12-20T01:52:30.442Z,11.83
2022-12-20T01:53:30.483Z,11.85
2022-12-20T01:54:30.430Z,11.88
2022-12-20T01:55:30.452Z,11.94
2022-12-20T01:56:30.411Z,11.94
2022-12-20T01:57:30.391Z,11.95
2022-12-20T01:58:30.377Z,11.94
2022-12-20T01:59:30.379Z,11.94
2022-12-20T02:00:30.339Z,11.86
2022-12-20T02:01:30.502Z,11.80
2022-12-20T02:02:30.447Z,11.79
2022-12-20T02:03:30.319Z,11.80
2022-12-20T02:04:30.301Z,11.80
2022-12-20T02:05:30.289Z,11.79
2022-12-20T02:06:30.278Z,11.75
2022-12-20T02:07:30.231Z,11.75
2022-12-20T02:08:30.329Z,11.76
2022-12-20T02:09:30.226Z,11.80
2022-12-20T02:10:30.195Z,11.83
2022-12-20T02:11:30.194Z,11.88
2022-12-20T02:12:30.220Z,11.86
2022-12-20T02:13:30.150Z,11.88
2022-12-20T02:14:30.242Z,11.90
2022-12-20T02:15:30.151Z,11.88
2022-12-20T02:16:30.139Z,11.88
2022-12-20T02:17:30.107Z,11.86
2022-12-20T02:18:30.139Z,11.86
2022-12-20T02:19:30.081Z,11.82
2022-12-20T02:20:30.072Z,11.85
2022-12-20T02:21:30.047Z,11.86
2022-12-20T02:22:30.020Z,11.85
2022-12-20T02:23:30.002Z,11.90
2022-12-20T02:24:30.017Z,11.86
2022-12-20T02:25:29.983Z,11.91
2022-12-20T02:26:29.965Z,11.94
2022-12-20T02:27:29.976Z,11.94
2022-12-20T02:28:29.944Z,11.86
2022-12-20T02:29:29.898Z,11.82
2022-12-20T02:30:29.928Z,11.78
2022-12-20T02:31:29.929Z,11.73
2022-12-20T02:32:29.872Z,11.73
2022-12-20T02:33:29.862Z,11.72
2022-12-20T02:34:29.854Z,11.67
2022-12-20T02:35:29.836Z,11.65
2022-12-20T02:36:29.819Z,11.57
2022-12-20T02:37:29.816Z,11.51
2022-12-20T02:38:29.840Z,11.58
2022-12-20T02:39:29.758Z,11.55
2022-12-20T02:40:29.778Z,11.52
2022-12-20T02:41:29.767Z,11.47
2022-12-20T02:42:29.754Z,11.49
2022-12-20T02:43:29.715Z,11.42
2022-12-20T02:44:29.701Z,11.33
2022-12-20T02:45:29.741Z,11.29
2022-12-20T02:46:29.749Z,11.32
2022-12-20T02:47:29.660Z,11.28
2022-12-20T02:48:29.683Z,11.29
2022-12-20T02:49:39.728Z,11.24
2022-12-20T02:50:29.653Z,11.32
2022-12-20T02:51:29.647Z,11.32
2022-12-20T02:52:29.603Z,11.27
2022-12-20T02:53:29.585Z,11.24
2022-12-20T02:54:29.561Z,11.24
2022-12-20T02:55:29.535Z,11.18
2022-12-20T02:56:29.558Z,11.17
2022-12-20T02:57:29.523Z,11.15
2022-12-20T02:58:29.510Z,11.14
2022-12-20T02:59:29.500Z,11.11
2022-12-20T03:00:29.453Z,11.07
2022-12-20T03:01:29.520Z,11.03
2022-12-20T03:02:40.808Z,10.97
2022-12-20T03:03:29.658Z,10.89
2022-12-20T03:04:29.533Z,10.84
2022-12-20T03:05:39.714Z,10.74
2022-12-20T03:06:29.432Z,10.70
2022-12-20T03:07:29.455Z,10.68
2022-12-20T03:08:29.422Z,10.67
2022-12-20T03:09:29.327Z,10.66
2022-12-20T03:10:29.346Z,10.61
2022-12-20T03:11:29.337Z,10.55
2022-12-20T03:12:29.287Z,10.52
2022-12-20T03:13:29.269Z,10.51
2022-12-20T03:14:29.291Z,10.52
2022-12-20T03:15:29.236Z,10.47
2022-12-20T03:16:29.291Z,10.45
2022-12-20T03:17:29.234Z,10.44
2022-12-20T03:18:29.232Z,10.41
2022-12-20T03:19:29.194Z,10.36
2022-12-20T03:20:29.189Z,10.32
2022-12-20T03:21:29.180Z,10.32
2022-12-20T03:22:29.163Z,10.30
2022-12-20T03:23:29.146Z,10.29
2022-12-20T03:24:29.117Z,10.33
2022-12-20T03:25:29.135Z,10.34
2022-12-20T03:26:29.118Z,10.32
2022-12-20T03:27:29.115Z,10.29
2022-12-20T03:28:29.046Z,10.25
2022-12-20T03:29:29.161Z,10.26
2022-12-20T03:30:29.036Z,10.26
2022-12-20T03:31:29.151Z,10.26
2022-12-20T03:32:29.007Z,10.23
2022-12-20T03:33:29.025Z,10.29
2022-12-20T03:34:28.969Z,10.26
2022-12-20T03:35:28.977Z,10.27
2022-12-20T03:36:28.959Z,10.25
2022-12-20T03:37:28.942Z,10.20
2022-12-20T03:38:28.954Z,10.22
2022-12-20T03:39:28.922Z,10.18
2022-12-20T03:40:28.920Z,10.22
2022-12-20T03:41:28.892Z,10.20
2022-12-20T03:42:28.850Z,10.17
2022-12-20T03:43:28.882Z,10.14
2022-12-20T03:44:28.918Z,10.14
2022-12-20T03:45:28.804Z,10.05
2022-12-20T03:46:28.857Z,10.15
2022-12-20T03:47:28.840Z,10.22
2022-12-20T03:48:28.865Z,10.18
2022-12-20T03:49:28.820Z,10.17
2022-12-20T03:50:28.752Z,10.12
2022-12-20T03:51:28.745Z,10.14
2022-12-20T03:52:28.716Z,10.15
2022-12-20T03:53:28.715Z,10.11
2022-12-20T03:54:28.674Z,10.15
2022-12-20T03:55:28.695Z,10.17
2022-12-20T03:56:28.674Z,10.20
2022-12-20T03:57:28.669Z,10.22
2022-12-20T03:58:28.658Z,10.23
2022-12-20T03:59:28.635Z,10.23
2022-12-20T04:00:28.619Z,10.25
2022-12-20T04:01:28.694Z,10.25
2022-12-20T04:02:28.781Z,10.23
2022-12-20T04:03:28.677Z,10.17
2022-12-20T04:04:28.619Z,10.17
2022-12-20T04:05:28.526Z,10.18
2022-12-20T04:06:28.515Z,10.20
2022-12-20T04:07:28.512Z,10.14
2022-12-20T04:08:28.485Z,10.11
2022-12-20T04:09:28.483Z,10.09
2022-12-20T04:10:28.500Z,10.14
2022-12-20T04:11:28.454Z,10.14
2022-12-20T04:12:28.424Z,10.23
2022-12-20T04:13:28.426Z,10.26
2022-12-20T04:14:28.418Z,10.17
2022-12-20T04:15:28.565Z,10.17
2022-12-20T04:16:28.434Z,10.17
2022-12-20T04:17:28.445Z,10.12
2022-12-20T04:18:28.370Z,10.18
2022-12-20T04:19:28.375Z,10.15
2022-12-20T04:20:28.417Z,10.12
2022-12-20T04:21:28.391Z,10.08
2022-12-20T04:22:28.315Z,10.11
2022-12-20T04:23:28.305Z,10.07
2022-12-20T04:24:28.317Z,10.12
2022-12-20T04:25:28.288Z,10.11
2022-12-20T04:26:28.279Z,10.14
2022-12-20T04:27:28.259Z,10.20
2022-12-20T04:28:28.226Z,10.17
2022-12-20T04:29:28.248Z,10.12
2022-12-20T04:30:28.238Z,10.14
2022-12-20T04:31:28.236Z,10.11
2022-12-20T04:32:28.184Z,10.11
2022-12-20T04:33:28.173Z,10.08
2022-12-20T04:34:28.189Z,10.07
2022-12-20T04:35:28.167Z,10.08
2022-12-20T04:36:28.108Z,10.15
2022-12-20T04:37:28.239Z,10.11
2022-12-20T04:38:28.125Z,10.20
2022-12-20T04:39:28.092Z,10.17
2022-12-20T04:40:28.150Z,10.18
2022-12-20T04:41:28.092Z,10.25
2022-12-20T04:42:28.207Z,10.23
2022-12-20T04:43:28.047Z,10.29
2022-12-20T04:44:28.005Z,10.33
2022-12-20T04:45:28.007Z,10.32
2022-12-20T04:46:28.112Z,10.36
2022-12-20T04:47:28.019Z,10.36
2022-12-20T04:49:28.980Z,10.27
2022-12-20T04:50:27.951Z,10.32
2022-12-20T04:51:27.995Z,10.32
2022-12-20T04:52:28.053Z,10.29
2022-12-20T04:53:32.182Z,10.26
2022-12-20T04:54:27.887Z,10.27
2022-12-20T04:55:27.918Z,10.26
2022-12-20T04:56:28.031Z,10.27
2022-12-20T04:57:27.924Z,10.27
2022-12-20T04:58:27.937Z,10.27
2022-12-20T04:59:27.841Z,10.29
2022-12-20T05:00:27.895Z,10.26
2022-12-20T05:01:28.030Z,10.25
2022-12-20T05:02:27.846Z,10.25
2022-12-20T05:03:27.789Z,10.26
2022-12-20T05:04:31.666Z,10.22
2022-12-20T05:05:28.755Z,10.25
2022-12-20T05:06:27.842Z,10.22
2022-12-20T05:07:28.009Z,10.25
2022-12-20T05:08:27.698Z,10.26
2022-12-20T05:09:27.817Z,10.26
2022-12-20T05:10:27.651Z,10.25
2022-12-20T05:11:27.666Z,10.25
2022-12-20T05:12:27.705Z,10.22
2022-12-20T05:13:27.596Z,10.26
2022-12-20T05:14:27.944Z,10.25
2022-12-20T05:15:27.648Z,10.27
2022-12-20T05:16:27.748Z,10.30
2022-12-20T05:17:27.580Z,10.27
2022-12-20T05:18:27.570Z,10.26
2022-12-20T05:19:27.682Z,10.32
2022-12-20T05:20:27.556Z,10.30
2022-12-20T05:21:27.494Z,10.26
2022-12-20T05:22:27.461Z,10.25
2022-12-20T05:23:27.478Z,10.22
2022-12-20T05:24:27.507Z,10.22
2022-12-20T05:25:27.464Z,10.20
2022-12-20T05:26:27.400Z,10.26
2022-12-20T05:27:27.463Z,10.27
2022-12-20T05:28:27.446Z,10.27
2022-12-20T05:29:27.436Z,10.29
2022-12-20T05:30:27.382Z,10.26
2022-12-20T05:31:27.500Z,10.25
2022-12-20T05:32:27.357Z,10.27
2022-12-20T05:33:33.625Z,10.25
2022-12-20T05:34:28.301Z,10.26
2022-12-20T05:35:27.349Z,10.27
2022-12-20T05:36:27.258Z,10.33
2022-12-20T05:37:27.288Z,10.27
2022-12-20T05:38:27.244Z,10.30
2022-12-20T05:39:27.254Z,10.27
2022-12-20T05:40:27.221Z,10.29
2022-12-20T05:41:27.228Z,10.26
2022-12-20T05:42:27.174Z,10.27
2022-12-20T05:43:27.204Z,10.25
2022-12-20T05:44:27.188Z,10.23
2022-12-20T05:45:27.209Z,10.22
2022-12-20T05:46:27.181Z,10.20
2022-12-20T05:47:27.169Z,10.27
2022-12-20T05:48:27.147Z,10.25
2022-12-20T05:49:27.109Z,10.29
2022-12-20T05:50:27.125Z,10.33
2022-12-20T05:51:27.095Z,10.40
2022-12-20T05:52:27.059Z,10.38
2022-12-20T05:53:27.097Z,10.33
2022-12-20T05:54:27.106Z,10.30
2022-12-20T05:55:27.127Z,10.29
2022-12-20T05:56:27.007Z,10.33
2022-12-20T05:57:27.029Z,10.34
2022-12-20T05:58:26.982Z,10.38
2022-12-20T05:59:27.007Z,10.40
2022-12-20T06:00:26.948Z,10.38
2022-12-20T06:01:26.966Z,10.38
2022-12-20T06:02:27.037Z,10.36
2022-12-20T06:03:27.068Z,10.36
2022-12-20T06:04:26.912Z,10.40
2022-12-20T06:05:26.881Z,10.44
2022-12-20T06:06:26.991Z,10.47
2022-12-20T06:07:26.907Z,10.47
2022-12-20T06:08:26.878Z,10.47
2022-12-20T06:09:26.799Z,10.48
2022-12-20T06:10:26.861Z,10.51
2022-12-20T06:11:30.283Z,10.48
2022-12-20T06:12:26.768Z,10.51
2022-12-20T06:13:26.794Z,10.48
2022-12-20T06:14:26.729Z,10.52
2022-12-20T06:15:26.719Z,10.60
2022-12-20T06:16:26.809Z,10.61
2022-12-20T06:17:26.715Z,10.61
2022-12-20T06:18:26.732Z,10.64
2022-12-20T06:19:26.680Z,10.60
2022-12-20T06:20:26.692Z,10.59
2022-12-20T06:21:26.693Z,10.56
2022-12-20T06:22:26.672Z,10.56
2022-12-20T06:23:26.689Z,10.55
2022-12-20T06:24:26.635Z,10.55
2022-12-20T06:25:26.624Z,10.60
2022-12-20T06:26:26.600Z,10.66
2022-12-20T06:27:26.591Z,10.70
2022-12-20T06:28:26.587Z,10.70
2022-12-20T06:29:26.581Z,10.67
2022-12-20T06:30:33.371Z,10.71
2022-12-20T06:31:27.629Z,10.66
2022-12-20T06:32:26.511Z,10.68
2022-12-20T06:33:26.525Z,10.71
2022-12-20T06:34:26.552Z,10.74
2022-12-20T06:35:26.500Z,10.73
2022-12-20T06:36:26.457Z,10.76
2022-12-20T06:37:26.460Z,10.76
2022-12-20T06:38:26.445Z,10.81
2022-12-20T06:39:26.404Z,10.85
2022-12-20T06:41:54.827Z,10.89
2022-12-20T06:42:54.932Z,10.88
2022-12-20T06:44:04.921Z,10.88
2022-12-20T06:44:54.920Z,10.88
2022-12-20T06:45:54.863Z,10.88
2022-12-20T06:46:54.761Z,10.84
2022-12-20T06:47:54.698Z,10.81
2022-12-20T06:48:54.704Z,10.82
2022-12-20T06:49:54.700Z,10.89
2022-12-20T06:50:56.319Z,10.96
2022-12-20T06:51:54.644Z,10.99
2022-12-20T06:52:54.611Z,11.00
2022-12-20T06:53:54.600Z,11.06
2022-12-20T06:54:54.586Z,11.15
2022-12-20T06:55:54.705Z,11.14
2022-12-20T06:56:54.551Z,11.21
2022-12-20T06:57:54.581Z,11.17
2022-12-20T06:58:54.540Z,11.11
2022-12-20T06:59:54.524Z,11.15
2022-12-20T07:00:54.564Z,11.14
2022-12-20T07:01:54.637Z,11.18
2022-12-20T07:02:54.620Z,11.15
2022-12-20T07:03:54.572Z,11.11
2022-12-20T07:04:54.474Z,11.10
2022-12-20T07:05:54.468Z,11.11
2022-12-20T07:06:54.412Z,11.14
2022-12-20T07:07:54.435Z,11.11
2022-12-20T07:08:54.418Z,11.10
2022-12-20T07:09:54.402Z,11.10
2022-12-20T07:10:54.384Z,11.17
2022-12-20T07:11:54.368Z,11.15
2022-12-20T07:12:54.313Z,11.17
2022-12-20T07:13:54.308Z,11.11
2022-12-20T07:14:54.333Z,11.10
2022-12-20T07:15:54.310Z,11.14
2022-12-20T07:16:54.334Z,11.14
2022-12-20T07:17:54.286Z,11.07
2022-12-20T07:18:54.239Z,11.07
2022-12-20T07:19:54.252Z,11.06
2022-12-20T07:20:54.236Z,11.14
2022-12-20T07:21:54.262Z,11.18
2022-12-20T07:22:54.182Z,11.15
2022-12-20T07:23:54.189Z,11.10
2022-12-20T07:24:54.151Z,11.10
2022-12-20T07:25:54.149Z,11.10
2022-12-20T07:26:54.180Z,11.10
2022-12-20T07:27:54.125Z,11.09
2022-12-20T07:28:54.126Z,11.07
2022-12-20T07:29:54.103Z,11.17
2022-12-20T07:30:54.105Z,11.17
2022-12-20T07:31:54.155Z,11.15
2022-12-20T07:32:54.141Z,11.10
2022-12-20T07:33:54.151Z,11.11
2022-12-20T07:34:54.049Z,11.14
2022-12-20T07:35:54.875Z,11.14
2022-12-20T07:36:54.020Z,11.15
2022-12-20T07:37:53.974Z,11.24
2022-12-20T07:38:53.995Z,11.29
2022-12-20T07:39:53.980Z,11.35
2022-12-20T07:40:53.981Z,11.33
2022-12-20T07:41:53.931Z,11.29
2022-12-20T07:42:53.925Z,11.25
2022-12-20T07:43:53.956Z,11.21
2022-12-20T07:44:53.863Z,11.24
2022-12-20T07:45:53.890Z,11.21
2022-12-20T07:46:53.858Z,11.19
2022-12-20T07:47:54.036Z,11.22
2022-12-20T07:48:53.854Z,11.25
2022-12-20T07:49:53.800Z,11.19
2022-12-20T07:50:53.854Z,11.19
2022-12-20T07:51:53.786Z,11.21
2022-12-20T07:52:53.760Z,11.24
2022-12-20T07:53:53.759Z,11.22
2022-12-20T07:54:53.784Z,11.21
2022-12-20T07:55:53.721Z,11.32
2022-12-20T07:56:53.738Z,11.32
2022-12-20T07:57:53.699Z,11.29
2022-12-20T07:58:53.716Z,11.25
2022-12-20T07:59:53.672Z,11.22
2022-12-20T08:00:53.718Z,11.17
2022-12-20T08:01:57.039Z,11.21
2022-12-20T08:02:54.776Z,11.29
2022-12-20T08:03:53.637Z,11.29
2022-12-20T08:05:03.829Z,11.28
2022-12-20T08:06:03.959Z,11.35
2022-12-20T08:06:53.750Z,11.40
2022-12-20T08:07:58.683Z,11.43
2022-12-20T08:08:54.647Z,11.43
2022-12-20T08:09:53.530Z,11.51
2022-12-20T08:10:53.510Z,11.52
2022-12-20T08:11:53.526Z,11.54
2022-12-20T08:12:53.492Z,11.51
2022-12-20T08:13:57.738Z,11.47
2022-12-20T08:14:53.465Z,11.49
2022-12-20T08:15:53.469Z,11.47
2022-12-20T08:16:53.593Z,11.52
2022-12-20T08:17:53.413Z,11.58
2022-12-20T08:18:53.440Z,11.62
2022-12-20T08:19:53.381Z,11.62
2022-12-20T08:20:53.405Z,11.62
2022-12-20T08:21:53.333Z,11.55
2022-12-20T08:22:53.411Z,11.60
2022-12-20T08:23:53.342Z,11.60
2022-12-20T08:24:53.344Z,11.60
2022-12-20T08:25:53.321Z,11.60
2022-12-20T08:26:53.337Z,11.67
2022-12-20T08:27:53.270Z,11.64
2022-12-20T08:28:53.267Z,11.61
2022-12-20T08:29:53.277Z,11.62
2022-12-20T08:30:53.374Z,11.61
2022-12-20T08:31:53.232Z,11.70
2022-12-20T08:32:53.203Z,11.70
2022-12-20T08:33:53.233Z,11.70
2022-12-20T08:34:53.158Z,11.69
2022-12-20T08:35:53.148Z,11.69
2022-12-20T08:36:53.208Z,11.73
2022-12-20T08:37:53.194Z,11.78
2022-12-20T08:38:53.174Z,11.78
2022-12-20T08:39:53.096Z,11.76
2022-12-20T08:40:53.148Z,11.78
2022-12-20T08:41:53.106Z,11.80
2022-12-20T08:42:53.060Z,11.79
2022-12-20T08:43:53.095Z,11.85
2022-12-20T08:44:53.052Z,11.94
2022-12-20T08:45:53.056Z,11.94
2022-12-20T08:46:53.037Z,11.88
2022-12-20T08:47:52.998Z,11.85
2022-12-20T08:48:52.965Z,11.86
2022-12-20T08:49:52.949Z,11.90
2022-12-20T08:50:53.019Z,11.91
2022-12-20T08:51:53.398Z,11.91
2022-12-20T08:52:53.272Z,11.90
2022-12-20T08:53:53.759Z,11.91
2022-12-20T08:54:54.288Z,11.88
2022-12-20T08:56:04.272Z,11.83
2022-12-20T08:57:06.046Z,11.85
2022-12-20T08:57:53.297Z,11.90
2022-12-20T08:59:05.471Z,11.91
2022-12-20T09:01:00.659Z,11.98
2022-12-20T09:02:16.166Z,11.99
2022-12-20T09:02:56.989Z,12.02
2022-12-20T09:03:58.622Z,12.02
2022-12-20T09:04:56.583Z,12.07
2022-12-20T09:05:58.727Z,12.10
2022-12-20T09:07:03.284Z,12.12
2022-12-20T09:07:56.440Z,12.12
2022-12-20T09:08:56.442Z,12.16
2022-12-20T09:09:56.384Z,12.13
2022-12-20T09:10:56.420Z,12.16
2022-12-20T09:11:56.456Z,12.13
2022-12-20T09:12:57.359Z,12.12
2022-12-20T09:13:59.515Z,12.10
2022-12-20T09:14:57.310Z,12.09
2022-12-20T09:17:10.163Z,12.14
2022-12-20T09:18:10.833Z,12.17
2022-12-20T09:19:10.145Z,12.16
2022-12-20T09:20:10.106Z,12.14
2022-12-20T09:21:10.106Z,12.13
2022-12-20T09:22:10.086Z,12.16
2022-12-20T09:23:10.085Z,12.16
2022-12-20T09:24:10.008Z,12.14
2022-12-20T09:25:10.063Z,12.16
2022-12-20T09:26:10.076Z,12.17
2022-12-20T09:27:09.999Z,12.17
2022-12-20T09:28:10.035Z,12.14
2022-12-20T09:29:10.019Z,12.19
2022-12-20T09:30:10.067Z,12.21
2022-12-20T09:31:09.966Z,12.23
2022-12-20T09:32:09.921Z,12.21
2022-12-20T09:33:10.478Z,12.27
2022-12-20T09:34:09.880Z,12.29
2022-12-20T09:35:09.859Z,12.29
2022-12-20T09:36:09.884Z,12.27
2022-12-20T09:37:09.852Z,12.20
2022-12-20T09:38:09.834Z,12.17
2022-12-20T09:39:09.812Z,12.16
2022-12-20T09:40:09.780Z,12.14
2022-12-20T09:41:09.850Z,12.12
2022-12-20T09:42:09.816Z,12.07
2022-12-20T09:43:09.775Z,12.12
2022-12-20T09:44:09.733Z,12.12
2022-12-20T09:45:09.720Z,12.12
2022-12-20T09:46:09.757Z,12.12
2022-12-20T09:47:11.104Z,12.19
2022-12-20T09:48:09.753Z,12.17
2022-12-20T09:49:09.726Z,12.19
2022-12-20T09:50:09.651Z,12.16
2022-12-20T09:51:09.737Z,12.17
2022-12-20T09:52:09.669Z,12.16
2022-12-20T09:53:13.511Z,12.13
2022-12-20T09:54:10.613Z,12.20
2022-12-20T09:55:09.613Z,12.17
2022-12-20T09:56:09.558Z,12.19
2022-12-20T09:57:09.594Z,12.20
2022-12-20T09:58:09.559Z,12.19
2022-12-20T09:59:09.549Z,12.19
2022-12-20T10:00:09.561Z,12.21
2022-12-20T10:01:14.538Z,12.23
2022-12-20T10:02:44.058Z,12.21
2022-12-20T10:03:11.165Z,12.23
2022-12-20T10:04:09.693Z,12.20
2022-12-20T10:05:09.559Z,12.17
2022-12-20T10:06:09.574Z,12.17
2022-12-20T10:07:09.407Z,12.16
2022-12-20T10:08:09.409Z,12.17
2022-12-20T10:09:09.384Z,12.13
2022-12-20T10:10:09.370Z,12.09
2022-12-20T10:11:09.393Z,12.05
2022-12-20T10:12:09.686Z,11.99
2022-12-20T10:13:09.396Z,12.01
2022-12-20T10:14:17.946Z,11.99
2022-12-20T10:15:09.431Z,11.99
2022-12-20T10:16:09.312Z,11.99
2022-12-20T10:17:09.441Z,12.02
2022-12-20T10:18:09.351Z,12.04
2022-12-20T10:19:09.310Z,12.05
2022-12-20T10:20:09.262Z,12.09
2022-12-20T10:21:09.299Z,12.16
2022-12-20T10:22:09.289Z,12.17
2022-12-20T10:23:09.227Z,12.17
2022-12-20T10:24:09.176Z,12.13
2022-12-20T10:25:10.716Z,12.16
2022-12-20T10:26:09.222Z,12.19
2022-12-20T10:27:09.361Z,12.23
2022-12-20T10:28:09.148Z,12.21
2022-12-20T10:29:09.140Z,12.24
2022-12-20T10:30:18.188Z,12.27
2022-12-20T10:31:13.768Z,12.31
2022-12-20T10:32:09.123Z,12.29
2022-12-20T10:33:09.084Z,12.31
2022-12-20T10:34:09.079Z,12.31
2022-12-20T10:35:09.071Z,12.28
2022-12-20T10:36:09.052Z,12.31
2022-12-20T10:37:09.033Z,12.31
2022-12-20T10:38:09.532Z,12.29
2022-12-20T10:39:08.974Z,12.31
2022-12-20T10:40:08.955Z,12.29
2022-12-20T10:41:24.247Z,12.29
2022-12-20T10:42:10.032Z,12.29
2022-12-20T10:43:09.008Z,12.29
2022-12-20T10:44:08.916Z,12.31
2022-12-20T10:45:08.946Z,12.32
2022-12-20T10:46:08.914Z,12.32
2022-12-20T10:47:08.965Z,12.34
2022-12-20T10:48:08.914Z,12.35
2022-12-20T10:49:08.855Z,12.37
2022-12-20T10:50:08.821Z,12.34
2022-12-20T10:51:15.110Z,12.31
2022-12-20T10:52:09.848Z,12.28
2022-12-20T10:53:08.962Z,12.24
2022-12-20T10:54:08.947Z,12.23
2022-12-20T10:55:08.974Z,12.19
2022-12-20T10:56:08.891Z,12.19
2022-12-20T10:57:14.465Z,12.19
2022-12-20T10:58:09.805Z,12.20
2022-12-20T10:59:08.775Z,12.23
2022-12-20T11:00:08.745Z,12.28
2022-12-20T11:01:08.738Z,12.29
2022-12-20T11:02:08.800Z,12.31
2022-12-20T11:03:08.928Z,12.34
2022-12-20T11:04:08.715Z,12.31
2022-12-20T11:05:08.898Z,12.32
2022-12-20T11:06:08.712Z,12.32
2022-12-20T11:07:08.884Z,12.34
2022-12-20T11:08:34.615Z,12.32
2022-12-20T11:09:09.738Z,12.34
2022-12-20T11:10:08.602Z,12.35
2022-12-20T11:11:08.584Z,12.34
2022-12-20T11:12:08.641Z,12.37
2022-12-20T11:13:08.545Z,12.37
2022-12-20T11:14:08.600Z,12.37
2022-12-20T11:15:08.551Z,12.41
2022-12-20T11:16:08.546Z,12.39
2022-12-20T11:17:08.480Z,12.41
2022-12-20T11:18:08.442Z,12.39
2022-12-20T11:19:08.516Z,12.41
2022-12-20T11:20:08.405Z,12.39
2022-12-20T11:21:14.547Z,12.39
2022-12-20T11:22:09.423Z,12.38
2022-12-20T11:23:08.482Z,12.39
2022-12-20T11:24:08.387Z,12.41
2022-12-20T11:25:08.387Z,12.41
2022-12-20T11:26:18.686Z,12.35
2022-12-20T11:27:18.651Z,12.37
2022-12-20T11:28:08.423Z,12.42
2022-12-20T11:29:08.542Z,12.41
2022-12-20T11:30:08.336Z,12.45
2022-12-20T11:31:08.279Z,12.45
2022-12-20T11:32:08.239Z,12.46
2022-12-20T11:33:08.444Z,12.42
2022-12-20T11:34:08.216Z,12.45
2022-12-20T11:35:08.319Z,12.39
2022-12-20T11:36:08.260Z,12.42
2022-12-20T11:37:08.274Z,12.42
2022-12-20T11:38:09.993Z,12.42
2022-12-20T11:39:08.158Z,12.38
2022-12-20T11:40:08.191Z,12.38
2022-12-20T11:41:08.135Z,12.35
2022-12-20T11:42:08.166Z,12.38
2022-12-20T11:43:08.159Z,12.41
2022-12-20T11:44:25.854Z,12.41
2022-12-20T11:45:10.171Z,12.37
2022-12-20T11:46:08.134Z,12.31
2022-12-20T11:47:08.282Z,12.29
2022-12-20T11:48:08.121Z,12.27
2022-12-20T11:49:08.502Z,12.23
2022-12-20T11:50:08.078Z,12.27
2022-12-20T11:51:12.175Z,12.23
2022-12-20T11:52:09.223Z,12.24
2022-12-20T11:53:07.995Z,12.20
2022-12-20T11:54:08.103Z,12.16
2022-12-20T11:55:07.956Z,12.17
2022-12-20T11:56:07.931Z,12.20
2022-12-20T11:57:07.960Z,12.21
2022-12-20T11:58:23.483Z,12.21
2022-12-20T11:59:08.913Z,12.19
2022-12-20T12:00:07.904Z,12.24
2022-12-20T12:01:07.913Z,12.28
2022-12-20T12:02:08.485Z,12.29
2022-12-20T12:03:07.933Z,12.31
2022-12-20T12:04:07.826Z,12.31
2022-12-20T12:05:07.861Z,12.34
2022-12-20T12:06:07.787Z,12.37
2022-12-20T12:07:07.777Z,12.37
2022-12-20T12:08:10.930Z,12.39
2022-12-20T12:09:08.738Z,12.41
2022-12-20T12:10:07.851Z,12.42
2022-12-20T12:11:07.777Z,12.42
2022-12-20T12:12:09.423Z,12.45
2022-12-20T12:13:07.800Z,12.46
2022-12-20T12:14:07.723Z,12.49
2022-12-20T12:15:12.712Z,12.47
2022-12-20T12:16:08.881Z,12.54
2022-12-20T12:17:10.613Z,12.54
2022-12-20T12:18:14.500Z,12.57
2022-12-20T12:19:18.641Z,12.59
2022-12-20T12:20:18.476Z,12.59
2022-12-20T12:21:19.907Z,12.57
2022-12-20T12:23:53.308Z,12.68
2022-12-20T12:24:53.169Z,12.71
2022-12-20T12:25:53.427Z,12.72
2022-12-20T12:26:53.410Z,12.78
2022-12-20T12:27:53.143Z,12.75
2022-12-20T12:28:53.798Z,12.78
2022-12-20T12:29:53.069Z,12.78
2022-12-20T12:30:53.185Z,12.79
2022-12-20T12:31:53.104Z,12.78
2022-12-20T12:32:53.472Z,12.82
2022-12-20T12:33:52.990Z,12.82
2022-12-20T12:34:53.615Z,12.82
2022-12-20T12:35:53.726Z,12.83
2022-12-20T12:38:20.844Z,12.86
2022-12-20T12:39:17.428Z,12.85
2022-12-20T12:40:17.426Z,12.85
2022-12-20T12:41:17.261Z,12.89
2022-12-20T12:42:17.022Z,12.90
2022-12-20T12:43:17.027Z,12.90
2022-12-20T12:44:35.836Z,12.92
2022-12-20T12:45:38.384Z,12.93
2022-12-20T12:46:17.225Z,13.00
2022-12-20T12:47:17.113Z,13.01
2022-12-20T12:48:17.080Z,13.04
2022-12-20T12:49:17.157Z,13.08
2022-12-20T12:50:17.091Z,13.10
2022-12-20T12:51:17.034Z,13.12
2022-12-20T12:52:16.939Z,13.12
2022-12-20T12:53:16.953Z,13.15
2022-12-20T12:54:17.022Z,13.15
2022-12-20T12:55:17.138Z,13.20
2022-12-20T12:56:43.144Z,13.19
2022-12-20T12:57:17.838Z,13.19
2022-12-20T12:58:17.268Z,13.19
2022-12-20T12:59:16.995Z,13.12
2022-12-20T13:00:27.131Z,13.07